createdAt,value
2022-12-03T00:00:21.938Z,9.70
2022-12-03T00:02:24.073Z,9.65
2022-12-03T00:04:26.253Z,9.54
2022-12-03T00:06:33.028Z,9.62
2022-12-03T00:08:36.413Z,9.57
2022-12-03T00:10:38.454Z,9.57
2022-12-03T00:12:40.692Z,9.56
2022-12-03T00:14:44.851Z,9.58
2022-12-03T00:16:47.625Z,9.51
2022-12-03T00:18:49.638Z,9.55
2022-12-03T00:20:51.679Z,9.56
2022-12-03T00:22:53.659Z,9.62
2022-12-03T00:24:55.916Z,9.53
2022-12-03T00:26:58.359Z,9.63
2022-12-03T00:29:00.383Z,9.52
2022-12-03T00:31:02.423Z,9.57
2022-12-03T00:33:04.685Z,9.62
2022-12-03T00:35:07.528Z,9.55
2022-12-03T00:37:09.734Z,9.54
2022-12-03T00:39:11.678Z,9.54
2022-12-03T00:41:13.764Z,9.55
2022-12-03T00:43:15.743Z,9.43
2022-12-03T00:45:17.761Z,9.51
2022-12-03T00:47:19.752Z,9.43
2022-12-03T00:49:21.768Z,9.44
2022-12-03T00:51:23.855Z,9.44
2022-12-03T00:53:25.770Z,9.55
2022-12-03T00:55:27.676Z,9.31
2022-12-03T00:57:29.761Z,9.40
2022-12-03T00:59:31.689Z,9.26
2022-12-03T01:01:33.849Z,9.42
2022-12-03T01:03:36.139Z,9.31
2022-12-03T01:05:38.153Z,9.34
2022-12-03T01:07:40.098Z,9.41
2022-12-03T01:09:42.051Z,9.40
2022-12-03T01:11:44.009Z,9.34
2022-12-03T01:13:46.000Z,9.45
2022-12-03T01:15:48.392Z,9.45
2022-12-03T01:17:50.489Z,9.47
2022-12-03T01:19:52.802Z,9.46
2022-12-03T01:21:55.664Z,9.50
2022-12-03T01:23:57.662Z,9.50
2022-12-03T01:25:59.688Z,9.48
2022-12-03T01:28:01.774Z,9.33
2022-12-03T01:30:05.133Z,9.42
2022-12-03T01:32:10.411Z,9.42
2022-12-03T01:34:12.414Z,9.42
2022-12-03T01:36:14.656Z,9.51
2022-12-03T01:38:16.746Z,9.44
2022-12-03T01:40:21.490Z,9.42
2022-12-03T01:42:26.895Z,9.40
2022-12-03T01:44:32.147Z,9.45
2022-12-03T01:46:41.866Z,9.44
2022-12-03T01:48:44.410Z,9.45
2022-12-03T01:50:46.533Z,9.33
2022-12-03T01:52:48.603Z,9.40
2022-12-03T01:54:55.901Z,9.43
2022-12-03T01:56:59.048Z,9.38
2022-12-03T01:59:00.951Z,9.35
2022-12-03T02:01:10.617Z,9.41
2022-12-03T02:03:25.108Z,9.31
2022-12-03T02:05:30.994Z,9.37
2022-12-03T02:07:33.996Z,9.40
2022-12-03T02:09:35.998Z,9.44
2022-12-03T02:11:42.836Z,9.44
2022-12-03T02:13:45.628Z,9.39
2022-12-03T02:15:47.607Z,9.23
2022-12-03T02:17:49.713Z,9.39
2022-12-03T02:19:53.750Z,9.33
2022-12-03T02:22:07.988Z,9.26
2022-12-03T02:24:22.222Z,9.37
2022-12-03T02:26:24.402Z,9.31
2022-12-03T02:28:26.407Z,9.29
2022-12-03T02:30:30.302Z,9.15
2022-12-03T02:32:32.653Z,9.23
2022-12-03T02:34:40.664Z,9.20
2022-12-03T02:36:42.637Z,9.25
2022-12-03T02:38:48.901Z,9.26
2022-12-03T02:40:56.268Z,9.28
2022-12-03T02:43:01.476Z,9.33
2022-12-03T02:45:09.781Z,9.34
2022-12-03T02:47:12.002Z,9.36
2022-12-03T02:49:14.241Z,9.27
2022-12-03T02:51:16.406Z,9.34
2022-12-03T02:53:24.112Z,9.23
2022-12-03T02:55:31.972Z,9.25
2022-12-03T02:57:40.377Z,9.25
2022-12-03T02:59:45.467Z,9.22
2022-12-03T03:01:48.623Z,9.25
2022-12-03T03:03:51.818Z,9.22
2022-12-03T03:05:56.889Z,9.23
2022-12-03T03:08:00.260Z,9.20
2022-12-03T03:10:04.159Z,9.18
2022-12-03T03:12:06.711Z,9.18
2022-12-03T03:14:08.801Z,9.18
2022-12-03T03:16:10.981Z,9.27
2022-12-03T03:18:15.342Z,9.28
2022-12-03T03:20:17.938Z,9.30
2022-12-03T03:22:19.912Z,9.20
2022-12-03T03:24:23.061Z,9.24
2022-12-03T03:26:25.442Z,9.24
2022-12-03T03:28:29.533Z,9.12
2022-12-03T03:30:32.674Z,9.18
2022-12-03T03:32:35.019Z,9.18
2022-12-03T03:34:36.979Z,9.24
2022-12-03T03:36:39.834Z,9.24
2022-12-03T03:38:42.851Z,9.33
2022-12-03T03:40:45.054Z,9.23
2022-12-03T03:42:47.883Z,9.26
2022-12-03T03:44:50.318Z,9.28
2022-12-03T03:46:52.487Z,9.22
2022-12-03T03:48:54.584Z,9.21
2022-12-03T03:50:57.059Z,9.12
2022-12-03T03:53:01.620Z,9.19
2022-12-03T03:55:05.102Z,9.25
2022-12-03T03:57:07.618Z,9.24
2022-12-03T03:59:09.680Z,9.13
2022-12-03T04:01:13.811Z,9.20
2022-12-03T04:03:15.852Z,9.17
2022-12-03T04:05:21.133Z,9.24
2022-12-03T04:07:23.159Z,9.09
2022-12-03T04:09:25.040Z,9.04
2022-12-03T04:11:30.155Z,9.11
2022-12-03T04:13:32.075Z,9.17
2022-12-03T04:15:34.154Z,9.15
2022-12-03T04:17:37.279Z,9.15
2022-12-03T04:19:39.158Z,9.17
2022-12-03T04:21:44.176Z,9.20
2022-12-03T04:23:46.092Z,9.17
2022-12-03T04:25:51.076Z,9.20
2022-12-03T04:27:56.090Z,9.17
2022-12-03T04:29:58.036Z,9.12
2022-12-03T04:32:03.119Z,9.10
2022-12-03T04:34:08.218Z,9.14
2022-12-03T04:36:10.136Z,9.10
2022-12-03T04:38:15.235Z,9.13
2022-12-03T04:40:20.300Z,9.09
2022-12-03T04:42:22.402Z,9.14
2022-12-03T04:44:27.621Z,9.12
2022-12-03T04:46:29.631Z,9.19
2022-12-03T04:48:31.546Z,9.16
2022-12-03T04:50:33.519Z,9.19
2022-12-03T04:52:35.517Z,9.02
2022-12-03T04:54:38.547Z,9.16
2022-12-03T04:56:40.555Z,9.16
2022-12-03T04:58:42.482Z,9.13
2022-12-03T05:00:44.385Z,9.06
2022-12-03T05:02:46.358Z,9.15
2022-12-03T05:04:48.456Z,8.92
2022-12-03T05:06:50.520Z,9.00
2022-12-03T05:08:52.561Z,9.01
2022-12-03T05:10:54.511Z,9.02
2022-12-03T05:12:56.798Z,8.91
2022-12-03T05:14:58.716Z,9.03
2022-12-03T05:17:00.802Z,9.02
2022-12-03T05:19:04.413Z,9.07
2022-12-03T05:21:06.620Z,9.09
2022-12-03T05:23:10.617Z,9.04
2022-12-03T05:25:12.475Z,9.03
2022-12-03T05:27:15.783Z,9.04
2022-12-03T05:29:20.798Z,9.06
2022-12-03T05:31:23.082Z,9.08
2022-12-03T05:33:25.144Z,8.98
2022-12-03T05:35:27.253Z,9.06
2022-12-03T05:37:29.270Z,9.01
2022-12-03T05:39:31.266Z,9.08
2022-12-03T05:41:36.395Z,8.80
2022-12-03T05:43:38.369Z,8.96
2022-12-03T05:45:42.597Z,9.02
2022-12-03T05:47:44.720Z,9.05
2022-12-03T05:49:46.818Z,9.01
2022-12-03T05:51:52.543Z,8.98
2022-12-03T05:53:58.978Z,9.00
2022-12-03T05:56:00.940Z,9.04
2022-12-03T05:58:03.564Z,9.04
2022-12-03T06:00:08.076Z,9.00
2022-12-03T06:02:10.153Z,9.03
2022-12-03T06:04:15.359Z,8.94
2022-12-03T06:06:17.319Z,9.09
2022-12-03T06:08:19.311Z,9.07
2022-12-03T06:10:24.449Z,9.04
2022-12-03T06:12:26.725Z,9.09
2022-12-03T06:14:30.317Z,9.09
2022-12-03T06:16:32.515Z,9.12
2022-12-03T06:18:34.503Z,9.08
2022-12-03T06:20:36.527Z,9.12
2022-12-03T06:22:38.470Z,9.00
2022-12-03T06:24:40.409Z,9.08
2022-12-03T06:26:42.315Z,9.04
2022-12-03T06:28:46.499Z,9.10
2022-12-03T06:30:48.456Z,8.93
2022-12-03T06:32:50.397Z,9.10
2022-12-03T06:34:52.682Z,9.13
2022-12-03T06:36:54.843Z,9.01
2022-12-03T06:38:56.864Z,9.13
2022-12-03T06:40:58.828Z,9.05
2022-12-03T06:43:00.769Z,8.95
2022-12-03T06:45:03.141Z,8.99
2022-12-03T06:47:05.141Z,9.01
2022-12-03T06:49:09.248Z,9.03
2022-12-03T06:51:11.308Z,8.92
2022-12-03T06:53:13.301Z,8.95
2022-12-03T06:55:15.513Z,8.98
2022-12-03T06:57:17.432Z,8.95
2022-12-03T06:59:19.336Z,8.99
2022-12-03T07:01:21.365Z,9.01
2022-12-03T07:03:23.491Z,8.94
2022-12-03T07:05:25.513Z,8.99
2022-12-03T07:07:27.486Z,9.06
2022-12-03T07:09:29.684Z,9.03
2022-12-03T07:11:31.697Z,8.99
2022-12-03T07:13:33.638Z,9.04
2022-12-03T07:15:35.576Z,9.09
2022-12-03T07:17:37.519Z,9.13
2022-12-03T07:19:39.597Z,9.10
2022-12-03T07:21:41.556Z,9.09
2022-12-03T07:23:43.612Z,9.05
2022-12-03T07:25:45.568Z,9.07
2022-12-03T07:27:47.555Z,9.08
2022-12-03T07:29:49.614Z,9.12
2022-12-03T07:31:51.686Z,9.09
2022-12-03T07:33:53.768Z,9.03
2022-12-03T07:35:55.655Z,9.10
2022-12-03T07:37:57.657Z,9.07
2022-12-03T07:39:59.778Z,8.98
2022-12-03T07:42:02.355Z,8.96
2022-12-03T07:44:09.147Z,9.07
2022-12-03T07:46:14.545Z,9.08
2022-12-03T07:48:16.552Z,9.09
2022-12-03T07:50:18.469Z,9.13
2022-12-03T07:52:20.465Z,9.08
2022-12-03T07:54:22.584Z,9.11
2022-12-03T07:56:24.471Z,9.10
2022-12-03T07:58:27.356Z,9.04
2022-12-03T08:00:29.340Z,9.09
2022-12-03T08:02:31.536Z,9.12
2022-12-03T08:04:33.646Z,9.11
2022-12-03T08:06:35.771Z,9.09
2022-12-03T08:08:37.945Z,9.13
2022-12-03T08:10:40.219Z,9.16
2022-12-03T08:12:42.295Z,9.08
2022-12-03T08:14:45.013Z,9.15
2022-12-03T08:16:48.617Z,9.15
2022-12-03T08:18:53.798Z,9.03
2022-12-03T08:20:55.874Z,9.15
2022-12-03T08:22:58.072Z,9.19
2022-12-03T08:25:00.194Z,9.12
2022-12-03T08:27:02.448Z,9.15
2022-12-03T08:29:10.293Z,9.17
2022-12-03T08:31:20.346Z,9.13
2022-12-03T08:33:28.695Z,9.15
2022-12-03T08:35:31.544Z,9.12
2022-12-03T08:37:36.305Z,9.09
2022-12-03T08:39:47.159Z,9.04
2022-12-03T08:41:56.946Z,9.15
2022-12-03T08:43:59.267Z,9.16
2022-12-03T08:46:01.531Z,9.18
2022-12-03T08:48:11.111Z,9.16
2022-12-03T08:50:30.166Z,9.17
2022-12-03T08:52:34.919Z,9.18
2022-12-03T08:54:37.441Z,9.25
2022-12-03T08:56:39.623Z,9.30
2022-12-03T08:58:44.456Z,9.25
2022-12-03T09:00:46.633Z,9.32
2022-12-03T09:02:52.687Z,9.32
2022-12-03T09:04:55.227Z,9.35
2022-12-03T09:06:58.686Z,9.22
2022-12-03T09:09:06.393Z,9.29
2022-12-03T09:11:08.887Z,9.24
2022-12-03T09:13:11.038Z,9.31
2022-12-03T09:15:13.144Z,9.30
2022-12-03T09:17:15.149Z,9.37
2022-12-03T09:19:17.238Z,9.39
2022-12-03T09:21:19.271Z,9.39
2022-12-03T09:23:21.325Z,9.40
2022-12-03T09:25:23.542Z,9.32
2022-12-03T09:27:25.613Z,9.24
2022-12-03T09:29:27.713Z,9.36
2022-12-03T09:31:29.846Z,9.34
2022-12-03T09:33:32.714Z,9.44
2022-12-03T09:35:34.945Z,9.39
2022-12-03T09:37:37.358Z,9.39
2022-12-03T09:39:39.472Z,9.46
2022-12-03T09:41:41.617Z,9.48
2022-12-03T09:44:03.190Z,9.46
2022-12-03T09:46:06.381Z,9.48
2022-12-03T09:48:08.461Z,9.49
2022-12-03T09:50:16.215Z,9.53
2022-12-03T09:52:26.321Z,9.56
2022-12-03T09:54:31.046Z,9.60
2022-12-03T09:56:36.917Z,9.65
2022-12-03T09:58:38.975Z,9.65
2022-12-03T10:00:43.105Z,9.61
2022-12-03T10:02:47.186Z,9.72
2022-12-03T10:04:49.670Z,9.74
2022-12-03T10:06:51.937Z,9.68
2022-12-03T10:08:55.245Z,9.75
2022-12-03T10:10:57.337Z,9.77
2022-12-03T10:13:00.033Z,9.79
2022-12-03T10:15:02.614Z,9.79
2022-12-03T10:17:05.589Z,9.86
2022-12-03T10:19:19.533Z,9.83
2022-12-03T10:21:29.845Z,9.89
2022-12-03T10:23:32.204Z,9.96
2022-12-03T10:25:49.795Z,10.08
2022-12-03T10:27:57.065Z,10.12
2022-12-03T10:30:02.096Z,10.18
2022-12-03T10:32:08.293Z,10.13
2022-12-03T10:34:11.750Z,10.17
2022-12-03T10:36:18.647Z,10.22
2022-12-03T10:38:23.240Z,10.28
2022-12-03T10:40:29.144Z,10.20
2022-12-03T10:42:38.839Z,10.25
2022-12-03T10:44:40.852Z,10.26
2022-12-03T10:46:43.534Z,10.24
2022-12-03T10:48:45.807Z,10.19
2022-12-03T10:50:51.652Z,10.18
2022-12-03T10:52:53.737Z,10.27
2022-12-03T10:54:56.297Z,10.23
2022-12-03T10:56:58.765Z,10.21
2022-12-03T10:59:00.931Z,10.26
2022-12-03T11:01:07.408Z,10.32
2022-12-03T11:03:19.955Z,10.26
2022-12-03T11:05:27.716Z,10.34
2022-12-03T11:07:31.458Z,10.31
2022-12-03T11:09:33.850Z,10.38
2022-12-03T11:11:35.884Z,10.39
2022-12-03T11:13:38.646Z,10.38
2022-12-03T11:15:44.618Z,10.32
2022-12-03T11:17:50.101Z,10.34
2022-12-03T11:19:53.137Z,10.40
2022-12-03T11:22:01.535Z,10.36
2022-12-03T11:24:04.968Z,10.46
2022-12-03T11:26:06.931Z,10.48
2022-12-03T11:28:12.818Z,10.52
2022-12-03T11:30:37.708Z,10.57
2022-12-03T11:32:43.315Z,10.64
2022-12-03T11:34:45.313Z,10.72
2022-12-03T11:37:01.623Z,10.68
2022-12-03T11:39:04.412Z,10.73
2022-12-03T11:41:11.109Z,10.81
2022-12-03T11:43:13.252Z,10.81
2022-12-03T11:45:19.277Z,10.84
2022-12-03T11:47:21.434Z,10.86
2022-12-03T11:49:28.403Z,10.85
2022-12-03T11:51:31.391Z,10.93
2022-12-03T11:53:35.692Z,10.97
2022-12-03T11:55:41.139Z,11.02
2022-12-03T11:57:43.726Z,10.97
2022-12-03T11:59:53.007Z,10.90
2022-12-03T12:01:55.221Z,10.99
2022-12-03T12:03:57.459Z,10.98
2022-12-03T12:06:08.543Z,10.93
2022-12-03T12:08:19.891Z,10.98
2022-12-03T12:10:28.202Z,10.97
2022-12-03T12:12:35.741Z,11.04
2022-12-03T12:14:38.210Z,11.04
2022-12-03T12:16:50.742Z,11.07
2022-12-03T12:18:55.477Z,11.04
2022-12-03T12:21:21.080Z,11.01
2022-12-03T12:23:29.321Z,11.00
2022-12-03T12:25:37.591Z,10.89
2022-12-03T12:27:45.849Z,10.98
2022-12-03T12:29:53.976Z,11.05
2022-12-03T12:32:03.229Z,11.03
2022-12-03T12:34:11.713Z,11.04
2022-12-03T12:36:13.768Z,10.78
2022-12-03T12:38:19.673Z,10.88
2022-12-03T12:40:27.058Z,10.96
2022-12-03T12:42:33.176Z,10.91
2022-12-03T12:44:35.215Z,10.92
2022-12-03T12:46:47.676Z,10.92
2022-12-03T12:48:50.624Z,11.04
2022-12-03T12:51:01.854Z,11.03
2022-12-03T12:53:12.488Z,11.07
2022-12-03T12:55:16.644Z,10.95
2022-12-03T12:57:23.120Z,10.97
2022-12-03T12:59:26.505Z,10.98
2022-12-03T13:01:30.306Z,10.92
2022-12-03T13:03:37.247Z,10.72
2022-12-03T13:05:42.880Z,10.77
2022-12-03T13:07:45.795Z,10.87
2022-12-03T13:09:54.911Z,10.88
2022-12-03T13:12:04.069Z,10.83
2022-12-03T13:14:14.321Z,10.85
2022-12-03T13:16:22.692Z,10.80
2022-12-03T13:18:30.994Z,10.95
2022-12-03T13:20:33.223Z,10.83
2022-12-03T13:22:35.323Z,10.97
2022-12-03T13:24:44.381Z,10.85
2022-12-03T13:26:46.499Z,10.89
2022-12-03T13:28:49.321Z,10.96
2022-12-03T13:30:51.312Z,10.91
2022-12-03T13:32:53.820Z,11.04
2022-12-03T13:35:02.603Z,10.88
2022-12-03T13:37:14.276Z,10.95
2022-12-03T13:39:20.461Z,11.01
2022-12-03T13:41:25.750Z,10.91
2022-12-03T13:43:32.131Z,10.97
2022-12-03T13:45:40.378Z,10.99
2022-12-03T13:47:45.380Z,10.97
2022-12-03T13:49:53.961Z,10.97
2022-12-03T13:51:56.372Z,10.98
2022-12-03T13:53:59.915Z,10.88
2022-12-03T13:56:06.547Z,10.91
2022-12-03T13:58:09.281Z,11.02
2022-12-03T14:00:12.120Z,10.89
2022-12-03T14:02:14.357Z,10.77
2022-12-03T14:04:16.347Z,10.85
2022-12-03T14:06:18.580Z,10.86
2022-12-03T14:08:20.856Z,10.89
2022-12-03T14:10:23.018Z,10.97
2022-12-03T14:12:26.156Z,10.87
2022-12-03T14:14:28.271Z,10.93
2022-12-03T14:16:30.884Z,10.96
2022-12-03T14:18:32.978Z,10.89
2022-12-03T14:20:35.241Z,10.91
2022-12-03T14:22:38.236Z,10.87
2022-12-03T14:24:40.410Z,10.92
2022-12-03T14:26:42.557Z,10.86
2022-12-03T14:28:44.864Z,10.89
2022-12-03T14:30:46.980Z,10.79
2022-12-03T14:32:49.180Z,10.92
2022-12-03T14:34:51.188Z,10.87
2022-12-03T14:36:53.298Z,10.88
2022-12-03T14:38:55.698Z,10.85
2022-12-03T14:40:57.727Z,10.68
2022-12-03T14:42:59.701Z,10.76
2022-12-03T14:45:01.759Z,10.77
2022-12-03T14:47:04.075Z,10.73
2022-12-03T14:49:06.124Z,10.70
2022-12-03T14:51:08.282Z,10.69
2022-12-03T14:53:10.308Z,10.69
2022-12-03T14:55:13.065Z,10.63
2022-12-03T14:57:15.892Z,10.57
2022-12-03T14:59:20.701Z,10.59
2022-12-03T15:01:25.371Z,10.68
2022-12-03T15:03:27.469Z,10.64
2022-12-03T15:05:29.531Z,10.63
2022-12-03T15:07:32.238Z,10.62
2022-12-03T15:09:35.059Z,10.61
2022-12-03T15:11:41.398Z,10.66
2022-12-03T15:13:46.829Z,10.72
2022-12-03T15:15:48.894Z,10.69
2022-12-03T15:17:51.056Z,10.67
2022-12-03T15:19:53.512Z,10.66
2022-12-03T15:21:55.798Z,10.62
2022-12-03T15:23:57.981Z,10.66
2022-12-03T15:26:00.106Z,10.65
2022-12-03T15:28:03.836Z,10.53
2022-12-03T15:30:07.351Z,10.61
2022-12-03T15:32:09.530Z,10.61
2022-12-03T15:34:11.656Z,10.53
2022-12-03T15:36:13.798Z,10.43
2022-12-03T15:38:15.909Z,10.60
2022-12-03T15:40:18.069Z,10.58
2022-12-03T15:42:20.141Z,10.55
2022-12-03T15:44:22.275Z,10.55
2022-12-03T15:46:24.884Z,10.50
2022-12-03T15:48:27.056Z,10.41
2022-12-03T15:50:29.332Z,10.49
2022-12-03T15:52:31.551Z,10.38
2022-12-03T15:54:34.007Z,10.45
2022-12-03T15:56:37.914Z,10.43
2022-12-03T15:58:40.952Z,10.43
2022-12-03T16:00:43.079Z,10.44
2022-12-03T16:02:50.732Z,10.50
2022-12-03T16:04:54.383Z,10.49
2022-12-03T16:06:56.454Z,10.54
2022-12-03T16:08:58.513Z,10.41
2022-12-03T16:11:00.638Z,10.42
2022-12-03T16:13:02.681Z,10.45
2022-12-03T16:15:08.318Z,10.45
2022-12-03T16:17:10.431Z,10.33
2022-12-03T16:19:12.644Z,10.46
2022-12-03T16:21:14.697Z,10.34
2022-12-03T16:23:16.732Z,10.32
2022-12-03T16:25:18.971Z,10.34
2022-12-03T16:27:25.494Z,10.25
2022-12-03T16:29:28.092Z,10.29
2022-12-03T16:31:30.332Z,10.29
2022-12-03T16:33:32.576Z,10.27
2022-12-03T16:35:34.683Z,10.13
2022-12-03T16:37:36.691Z,10.22
2022-12-03T16:39:39.334Z,10.15
2022-12-03T16:41:41.425Z,10.29
2022-12-03T16:43:46.213Z,10.31
2022-12-03T16:45:51.653Z,10.26
2022-12-03T16:47:54.636Z,10.20
2022-12-03T16:49:57.762Z,10.21
2022-12-03T16:51:59.940Z,10.10
2022-12-03T16:54:02.068Z,10.16
2022-12-03T16:56:04.212Z,10.16
2022-12-03T16:58:06.323Z,10.16
2022-12-03T17:00:09.041Z,10.18
2022-12-03T17:02:12.325Z,10.21
2022-12-03T17:04:14.411Z,10.22
2022-12-03T17:06:16.783Z,10.22
2022-12-03T17:08:19.122Z,10.24
2022-12-03T17:10:21.274Z,10.32
2022-12-03T17:12:25.443Z,10.34
2022-12-03T17:14:33.089Z,10.32
2022-12-03T17:16:35.676Z,10.27
2022-12-03T17:18:37.773Z,10.24
2022-12-03T17:20:39.900Z,10.34
2022-12-03T17:22:42.667Z,10.28
2022-12-03T17:24:44.718Z,10.22
2022-12-03T17:26:46.925Z,10.14
2022-12-03T17:28:49.019Z,10.13
2022-12-03T17:30:51.177Z,10.21
2022-12-03T17:32:53.432Z,10.19
2022-12-03T17:34:55.505Z,10.20
2022-12-03T17:36:57.727Z,10.09
2022-12-03T17:38:59.781Z,10.03
2022-12-03T17:41:02.119Z,10.16
2022-12-03T17:43:04.181Z,10.05
2022-12-03T17:45:07.273Z,10.10
2022-12-03T17:47:09.289Z,10.01
2022-12-03T17:49:11.310Z,10.03
2022-12-03T17:51:13.505Z,10.06
2022-12-03T17:53:15.515Z,10.03
2022-12-03T17:55:27.700Z,9.97
2022-12-03T17:57:35.809Z,9.96
2022-12-03T17:59:37.876Z,10.00
2022-12-03T18:01:41.792Z,10.03
2022-12-03T18:03:44.041Z,10.01
2022-12-03T18:05:46.252Z,10.05
2022-12-03T18:07:48.345Z,9.97
2022-12-03T18:09:50.411Z,9.89
2022-12-03T18:11:52.486Z,9.93
2022-12-03T18:13:54.710Z,10.05
2022-12-03T18:15:57.075Z,10.00
2022-12-03T18:17:59.238Z,10.01
2022-12-03T18:20:01.487Z,10.03
2022-12-03T18:22:03.577Z,10.04
2022-12-03T18:24:06.195Z,10.02
2022-12-03T18:26:09.156Z,9.97
2022-12-03T18:28:11.348Z,9.97
2022-12-03T18:30:13.858Z,10.02
2022-12-03T18:32:28.328Z,9.97
2022-12-03T18:34:31.135Z,9.99
2022-12-03T18:36:36.490Z,9.92
2022-12-03T18:38:38.944Z,9.96
2022-12-03T18:40:42.716Z,9.97
2022-12-03T18:42:45.117Z,9.89
2022-12-03T18:44:50.034Z,9.96
2022-12-03T18:46:53.890Z,9.88
2022-12-03T18:48:57.118Z,9.80
2022-12-03T18:50:59.488Z,9.78
2022-12-03T18:53:01.546Z,9.86
2022-12-03T18:55:04.728Z,9.84
2022-12-03T18:57:06.898Z,9.90
2022-12-03T18:59:09.792Z,9.93
2022-12-03T19:01:17.677Z,9.98
2022-12-03T19:03:19.958Z,9.92
2022-12-03T19:05:22.438Z,9.92
2022-12-03T19:07:24.772Z,9.94
2022-12-03T19:09:27.100Z,9.95
2022-12-03T19:11:29.367Z,9.98
2022-12-03T19:13:31.517Z,9.97
2022-12-03T19:15:37.331Z,9.97
2022-12-03T19:17:40.797Z,10.00
2022-12-03T19:19:43.076Z,9.91
2022-12-03T19:21:45.311Z,9.96
2022-12-03T19:24:22.226Z,9.94
2022-12-03T19:26:12.478Z,9.96
2022-12-03T19:28:14.689Z,10.07
2022-12-03T19:30:17.412Z,10.06
2022-12-03T19:32:19.596Z,10.13
2022-12-03T19:34:21.856Z,10.01
2022-12-03T19:36:28.233Z,9.94
2022-12-03T19:38:30.759Z,9.97
2022-12-03T19:40:32.893Z,10.03
2022-12-03T19:42:35.077Z,10.02
2022-12-03T19:44:37.336Z,10.13
2022-12-03T19:46:39.569Z,10.01
2022-12-03T19:48:42.113Z,10.05
2022-12-03T19:50:58.363Z,10.11
2022-12-03T19:53:11.294Z,10.04
2022-12-03T19:55:13.833Z,10.02
2022-12-03T19:57:22.873Z,9.96
2022-12-03T19:59:25.457Z,9.98
2022-12-03T20:01:30.140Z,9.95
2022-12-03T20:03:32.539Z,9.97
2022-12-03T20:05:38.939Z,9.95
2022-12-03T20:07:41.017Z,9.86
2022-12-03T20:09:43.631Z,9.88
2022-12-03T20:11:46.208Z,9.86
2022-12-03T20:13:52.613Z,9.89
2022-12-03T20:15:54.654Z,9.91
2022-12-03T20:17:56.911Z,9.71
2022-12-03T20:19:59.057Z,9.77
2022-12-03T20:22:02.954Z,9.79
2022-12-03T20:24:06.336Z,9.81
2022-12-03T20:26:11.851Z,9.79
2022-12-03T20:28:14.062Z,9.79
2022-12-03T20:30:16.550Z,9.73
2022-12-03T20:32:18.792Z,9.68
2022-12-03T20:34:21.096Z,9.68
2022-12-03T20:36:24.234Z,9.58
2022-12-03T20:38:26.830Z,9.53
2022-12-03T20:40:29.176Z,9.58
2022-12-03T20:42:31.456Z,9.59
2022-12-03T20:44:33.662Z,9.57
2022-12-03T20:46:36.483Z,9.54
2022-12-03T20:48:38.939Z,9.48
2022-12-03T20:50:41.889Z,9.45
2022-12-03T20:53:03.332Z,9.49
2022-12-03T20:55:06.736Z,9.28
2022-12-03T20:57:08.981Z,9.45
2022-12-03T20:59:13.646Z,9.49
2022-12-03T21:01:19.029Z,9.52
2022-12-03T21:03:21.558Z,9.43
2022-12-03T21:05:23.806Z,9.45
2022-12-03T21:07:26.249Z,9.45
2022-12-03T21:09:28.517Z,9.44
2022-12-03T21:11:32.010Z,9.39
2022-12-03T21:13:34.108Z,9.36
2022-12-03T21:15:36.167Z,9.32
2022-12-03T21:17:38.464Z,9.41
2022-12-03T21:19:40.748Z,9.37
2022-12-03T21:21:43.227Z,9.33
2022-12-03T21:23:45.477Z,9.39
2022-12-03T21:25:47.487Z,9.35
2022-12-03T21:27:50.195Z,9.44
2022-12-03T21:29:53.531Z,9.44
2022-12-03T21:31:55.950Z,9.47
2022-12-03T21:33:58.363Z,9.52
2022-12-03T21:36:01.344Z,9.39
2022-12-03T21:38:04.129Z,9.43
2022-12-03T21:40:07.336Z,9.40
2022-12-03T21:42:36.204Z,9.26
2022-12-03T21:44:31.971Z,9.38
2022-12-03T21:47:11.018Z,9.36
2022-12-03T21:48:56.475Z,9.42
2022-12-03T21:51:04.161Z,9.50
2022-12-03T21:53:06.899Z,9.43
2022-12-03T21:55:09.940Z,9.35
2022-12-03T21:57:12.055Z,9.33
2022-12-03T21:59:14.651Z,9.42
2022-12-03T22:01:19.525Z,9.36
2022-12-03T22:03:21.595Z,9.37
2022-12-03T22:05:23.588Z,9.40
2022-12-03T22:07:25.788Z,9.32
2022-12-03T22:09:28.104Z,9.38
2022-12-03T22:11:30.248Z,9.38
2022-12-03T22:13:32.432Z,9.43
2022-12-03T22:15:34.476Z,9.38
2022-12-03T22:17:38.773Z,9.31
2022-12-03T22:19:40.981Z,9.39
2022-12-03T22:21:43.131Z,9.37
2022-12-03T22:23:45.962Z,9.36
2022-12-03T22:25:48.073Z,9.42
2022-12-03T22:27:50.291Z,9.43
2022-12-03T22:29:52.600Z,9.40
2022-12-03T22:31:54.792Z,9.36
2022-12-03T22:33:56.816Z,9.42
2022-12-03T22:36:02.179Z,9.46
2022-12-03T22:38:04.452Z,9.44
2022-12-03T22:40:08.020Z,9.45
2022-12-03T22:42:10.354Z,9.42
2022-12-03T22:44:12.554Z,9.40
2022-12-03T22:46:16.123Z,9.48
2022-12-03T22:48:18.238Z,9.52
2022-12-03T22:50:20.276Z,9.51
2022-12-03T22:52:22.277Z,9.55
2022-12-03T22:54:24.496Z,9.33
2022-12-03T22:56:27.884Z,9.49
2022-12-03T22:58:31.526Z,9.49
2022-12-03T23:00:36.089Z,9.41
2022-12-03T23:02:38.381Z,9.53
2022-12-03T23:04:40.411Z,9.46
2022-12-03T23:06:43.663Z,9.49
2022-12-03T23:08:46.448Z,9.52
2022-12-03T23:10:50.972Z,9.53
2022-12-03T23:12:52.951Z,9.44
2022-12-03T23:14:55.463Z,9.46
2022-12-03T23:16:57.771Z,9.44
2022-12-03T23:19:01.559Z,9.44
2022-12-03T23:21:03.668Z,9.48
2022-12-03T23:23:05.698Z,9.42
2022-12-03T23:25:08.832Z,9.46
2022-12-03T23:27:11.147Z,9.51
2022-12-03T23:29:13.237Z,9.51
2022-12-03T23:31:20.227Z,9.51
2022-12-03T23:33:22.832Z,9.44
2022-12-03T23:35:24.776Z,9.55
2022-12-03T23:37:26.807Z,9.53
2022-12-03T23:39:28.870Z,9.58
2022-12-03T23:41:30.910Z,9.57
2022-12-03T23:43:33.064Z,9.54
2022-12-03T23:45:35.422Z,9.50
2022-12-03T23:47:37.532Z,9.50
2022-12-03T23:49:39.660Z,9.46
2022-12-03T23:51:41.620Z,9.37
2022-12-03T23:53:44.944Z,9.31
2022-12-03T23:55:46.948Z,9.32
2022-12-03T23:57:48.860Z,9.30
2022-12-03T23:59:51.459Z,9.34
